F/V Matmaco — FVNS — position and weather

sailwx.info

Track history (hours):
 
Tides and Currents Weather Stations Pressure Air Temp Water Temp Dewpoint Dewpoint Depression Visibility Wind Speed Wind Dir Waves Ship Positions

F/V Matmaco

Last reported at 2016-Aug-24 11:09 UTC. Time now 2016-Aug-24 12:03 UTC.
Position N 46°13' W 002°45'.

Length 20 m.

Type: Other ship. MMSI: 228194000.

Date/timePositionNaut miles runAvg speedWind from/ knotsBaromVisibWave heightAir tempDewpointWater temp
2016-Aug-24 11:09N 46°13' W 002°45'2 3.4
2016-Aug-24 10:32N 46°11' W 002°47'11 2.7
2016-Aug-24 06:30N 46°21' W 002°54'7 3.5
2016-Aug-24 04:33N 46°27' W 002°56'3 3.4
2016-Aug-24 03:33N 46°24' W 002°56'4 3.8
2016-Aug-24 02:33N 46°20' W 002°55'3 3.4
2016-Aug-24 01:33N 46°18' W 002°52'4 3.4
2016-Aug-24 00:30N 46°20' W 002°48'1 1.2
2016-Aug-23 23:33N 46°20' W 002°50'3 3.4
2016-Aug-23 22:33N 46°21' W 002°54'2 2.3
2016-Aug-23 21:33N 46°21' W 002°57'3 3.3
2016-Aug-23 20:34N 46°18' W 002°60'3 3.0
2016-Aug-23 19:33N 46°16' W 003°03'3 3.4
2016-Aug-23 18:33N 46°19' W 003°03'11 1.6
2016-Aug-23 11:27N 46°29' W 003°09'3 3.1
2016-Aug-23 10:33N 46°29' W 003°14'1 1.3
2016-Aug-23 09:32N 46°30' W 003°15'4 3.7
2016-Aug-23 08:33N 46°30' W 003°10'3 3.2
2016-Aug-23 07:34N 46°30' W 003°05'4 3.7
2016-Aug-23 06:33N 46°29' W 003°00'3 3.1
2016-Aug-23 05:33N 46°31' W 002°56'4 3.7
2016-Aug-23 04:20N 46°35' W 002°55'2 2.9
2016-Aug-23 03:34N 46°37' W 002°54'29 7.1
2016-Aug-22 23:28N 46°30' W 002°13'9 9.8
2016-Aug-22 22:34N 46°29' W 001°60'8 8.5
2016-Aug-22 21:34N 46°29' W 001°47'0 0.5
2016-Aug-22 20:34N 46°30' W 001°48'10 8.3
2016-Aug-22 19:24N 46°25' W 002°00'8 9.6
2016-Aug-22 18:34N 46°23' W 002°11'23 4.5
2016-Aug-22 13:22N 46°15' W 002°43'3 3.4
2016-Aug-22 12:33N 46°13' W 002°41'6 2.7
2016-Aug-22 10:24N 46°15' W 002°49'4 3.9
2016-Aug-22 09:24N 46°15' W 002°43'3 3.5
2016-Aug-22 08:31N 46°13' W 002°40'4 2.7
2016-Aug-22 07:06N 46°16' W 002°41'3 3.5
2016-Aug-22 06:07N 46°20' W 002°43'2 3.8
2016-Aug-22 05:32N 46°22' W 002°44'5 3.8
2016-Aug-22 04:06N 46°27' W 002°47'1 2.1
2016-Aug-22 03:34N 46°28' W 002°46'3 3.4
2016-Aug-22 02:33N 46°24' W 002°45'4 3.6
2016-Aug-22 01:30N 46°21' W 002°46'7 3.1
2016-Aug-21 23:08N 46°23' W 002°57'2 3.1
2016-Aug-21 22:29N 46°23' W 002°60'3 3.3
2016-Aug-21 21:28N 46°20' W 003°02'3 3.2
2016-Aug-21 20:33N 46°17' W 003°04'65 3.4
2016-Aug-21 01:10N 47°18' W 002°31'0 0.0
2016-Aug-20 03:21N 47°18' W 002°31'0 0.1
2016-Aug-20 02:33N 47°18' W 002°31'0 0.0
2016-Aug-20 01:33N 47°18' W 002°31'4 3.6
2016-Aug-20 00:33N 47°16' W 002°35'11 9.7
2016-Aug-19 23:25N 47°06' W 002°40'46 1.0
2016-Aug-18 01:33N 46°27' W 002°03'9 8.5
2016-Aug-18 00:32N 46°28' W 001°51'3 3.0
2016-Aug-17 23:33N 46°30' W 001°48'1 1.5
2016-Aug-17 22:33N 46°28' W 001°48'10 9.8
2016-Aug-17 21:33N 46°26' W 002°02'31 1.8
2016-Aug-17 04:15N 46°24' W 002°46'2 3.3
2016-Aug-17 03:33N 46°26' W 002°47'4 3.5
2016-Aug-17 02:32N 46°30' W 002°47'3 3.2
2016-Aug-17 01:33N 46°27' W 002°45'4 3.4
2016-Aug-17 00:30N 46°24' W 002°45'3 3.1
2016-Aug-16 23:24N 46°26' W 002°48'3 3.7
2016-Aug-16 22:33N 46°29' W 002°48'3 3.4
2016-Aug-16 21:33N 46°33' W 002°50'3 3.3
2016-Aug-16 20:33N 46°36' W 002°52'4 3.7
2016-Aug-16 19:33N 46°39' W 002°54'9 4.7
2016-Aug-16 17:33N 46°48' W 002°54'1310.1
2016-Aug-16 16:16N 47°00' W 002°46'7 9.3
2016-Aug-16 15:33N 47°06' W 002°42'14 0.6
2016-Aug-15 15:10N 47°18' W 002°31'2 2.5
2016-Aug-15 14:21N 47°19' W 002°34'  
Track history (hours):
 
Tides and Currents Weather Stations Pressure Air Temp Water Temp Dewpoint Dewpoint Depression Visibility Wind Speed Wind Dir Waves Ship Positions

F/V Matmaco

Last reported at 2016-Aug-24 11:09 UTC. Time now 2016-Aug-24 12:03 UTC.
Position N 46°13' W 002°45'.

Length 20 m.

Type: Other ship. MMSI: 228194000.

Date/timePositionNaut miles runAvg speedWind from/ knotsBaromVisibWave heightAir tempDewpointWater temp
2016-Aug-24 11:09N 46°13' W 002°45'2 3.4
2016-Aug-24 10:32N 46°11' W 002°47'11 2.7
2016-Aug-24 06:30N 46°21' W 002°54'7 3.5
2016-Aug-24 04:33N 46°27' W 002°56'3 3.4
2016-Aug-24 03:33N 46°24' W 002°56'4 3.8
2016-Aug-24 02:33N 46°20' W 002°55'3 3.4
2016-Aug-24 01:33N 46°18' W 002°52'4 3.4
2016-Aug-24 00:30N 46°20' W 002°48'1 1.2
2016-Aug-23 23:33N 46°20' W 002°50'3 3.4
2016-Aug-23 22:33N 46°21' W 002°54'2 2.3
2016-Aug-23 21:33N 46°21' W 002°57'3 3.3
2016-Aug-23 20:34N 46°18' W 002°60'3 3.0
2016-Aug-23 19:33N 46°16' W 003°03'3 3.4
2016-Aug-23 18:33N 46°19' W 003°03'11 1.6
2016-Aug-23 11:27N 46°29' W 003°09'3 3.1
2016-Aug-23 10:33N 46°29' W 003°14'1 1.3
2016-Aug-23 09:32N 46°30' W 003°15'4 3.7
2016-Aug-23 08:33N 46°30' W 003°10'3 3.2
2016-Aug-23 07:34N 46°30' W 003°05'4 3.7
2016-Aug-23 06:33N 46°29' W 003°00'3 3.1
2016-Aug-23 05:33N 46°31' W 002°56'4 3.7
2016-Aug-23 04:20N 46°35' W 002°55'2 2.9
2016-Aug-23 03:34N 46°37' W 002°54'29 7.1
2016-Aug-22 23:28N 46°30' W 002°13'9 9.8
2016-Aug-22 22:34N 46°29' W 001°60'8 8.5
2016-Aug-22 21:34N 46°29' W 001°47'0 0.5
2016-Aug-22 20:34N 46°30' W 001°48'10 8.3
2016-Aug-22 19:24N 46°25' W 002°00'8 9.6
2016-Aug-22 18:34N 46°23' W 002°11'23 4.5
2016-Aug-22 13:22N 46°15' W 002°43'3 3.4
2016-Aug-22 12:33N 46°13' W 002°41'6 2.7
2016-Aug-22 10:24N 46°15' W 002°49'4 3.9
2016-Aug-22 09:24N 46°15' W 002°43'3 3.5
2016-Aug-22 08:31N 46°13' W 002°40'4 2.7
2016-Aug-22 07:06N 46°16' W 002°41'3 3.5
2016-Aug-22 06:07N 46°20' W 002°43'2 3.8
2016-Aug-22 05:32N 46°22' W 002°44'5 3.8
2016-Aug-22 04:06N 46°27' W 002°47'1 2.1
2016-Aug-22 03:34N 46°28' W 002°46'3 3.4
2016-Aug-22 02:33N 46°24' W 002°45'4 3.6
2016-Aug-22 01:30N 46°21' W 002°46'7 3.1
2016-Aug-21 23:08N 46°23' W 002°57'2 3.1
2016-Aug-21 22:29N 46°23' W 002°60'3 3.3
2016-Aug-21 21:28N 46°20' W 003°02'3 3.2
2016-Aug-21 20:33N 46°17' W 003°04'65 3.4
2016-Aug-21 01:10N 47°18' W 002°31'0 0.0
2016-Aug-20 03:21N 47°18' W 002°31'0 0.1
2016-Aug-20 02:33N 47°18' W 002°31'0 0.0
2016-Aug-20 01:33N 47°18' W 002°31'4 3.6
2016-Aug-20 00:33N 47°16' W 002°35'11 9.7
2016-Aug-19 23:25N 47°06' W 002°40'46 1.0
2016-Aug-18 01:33N 46°27' W 002°03'9 8.5
2016-Aug-18 00:32N 46°28' W 001°51'3 3.0
2016-Aug-17 23:33N 46°30' W 001°48'1 1.5
2016-Aug-17 22:33N 46°28' W 001°48'10 9.8
2016-Aug-17 21:33N 46°26' W 002°02'31 1.8
2016-Aug-17 04:15N 46°24' W 002°46'2 3.3
2016-Aug-17 03:33N 46°26' W 002°47'4 3.5
2016-Aug-17 02:32N 46°30' W 002°47'3 3.2
2016-Aug-17 01:33N 46°27' W 002°45'4 3.4
2016-Aug-17 00:30N 46°24' W 002°45'3 3.1
2016-Aug-16 23:24N 46°26' W 002°48'3 3.7
2016-Aug-16 22:33N 46°29' W 002°48'3 3.4
2016-Aug-16 21:33N 46°33' W 002°50'3 3.3
2016-Aug-16 20:33N 46°36' W 002°52'4 3.7
2016-Aug-16 19:33N 46°39' W 002°54'9 4.7
2016-Aug-16 17:33N 46°48' W 002°54'1310.1
2016-Aug-16 16:16N 47°00' W 002°46'7 9.3
2016-Aug-16 15:33N 47°06' W 002°42'14 0.6
2016-Aug-15 15:10N 47°18' W 002°31'2 2.5
2016-Aug-15 14:21N 47°19' W 002°34'  

Dump ship's entire track history